createdAt,value
2018-10-12T00:00:50.964Z,27.20
2018-10-12T00:03:22.447Z,28.27
2018-10-12T00:05:53.887Z,32.63
2018-10-12T00:08:25.178Z,29.37
2018-10-12T00:10:56.336Z,27.03
2018-10-12T00:13:28.185Z,27.77
2018-10-12T00:15:59.320Z,25.20
2018-10-12T00:18:30.795Z,26.47
2018-10-12T00:21:02.267Z,28.53
2018-10-12T00:23:33.458Z,28.33
2018-10-12T00:26:05.609Z,28.90
2018-10-12T00:28:36.952Z,29.23
2018-10-12T00:31:08.335Z,23.53
2018-10-12T00:33:39.269Z,28.30
2018-10-12T00:36:10.495Z,25.13
2018-10-12T00:38:41.845Z,31.83
2018-10-12T00:41:13.237Z,29.30
2018-10-12T00:43:44.650Z,24.90
2018-10-12T00:46:15.895Z,30.93
2018-10-12T00:48:47.120Z,32.20
2018-10-12T00:51:18.472Z,31.33
2018-10-12T00:53:49.543Z,32.47
2018-10-12T00:56:20.785Z,28.27
2018-10-12T00:58:52.017Z,32.40
2018-10-12T01:01:23.301Z,30.13
2018-10-12T01:03:54.628Z,28.00
2018-10-12T01:06:25.789Z,31.10
2018-10-12T01:08:57.176Z,26.67
2018-10-12T01:11:28.624Z,29.97
2018-10-12T01:13:59.887Z,37.27
2018-10-12T01:16:31.148Z,28.60
2018-10-12T01:19:02.248Z,27.50
2018-10-12T01:21:34.007Z,33.73
2018-10-12T01:24:05.786Z,29.73
2018-10-12T01:26:37.149Z,28.03
2018-10-12T01:29:08.194Z,27.13
2018-10-12T01:31:39.532Z,29.50
2018-10-12T01:34:11.119Z,28.47
2018-10-12T01:36:42.325Z,31.97
2018-10-12T01:39:13.709Z,26.60
2018-10-12T01:41:45.177Z,28.83
2018-10-12T01:44:16.598Z,33.50
2018-10-12T01:46:48.101Z,33.87
2018-10-12T01:49:19.359Z,32.57
2018-10-12T01:51:50.831Z,29.73
2018-10-12T01:54:22.190Z,29.30
2018-10-12T01:56:54.021Z,29.23
2018-10-12T01:59:25.602Z,27.63
2018-10-12T02:01:56.844Z,31.13
2018-10-12T02:04:29.079Z,30.63
2018-10-12T02:07:00.765Z,30.87
2018-10-12T02:09:32.117Z,26.33
2018-10-12T02:12:03.573Z,30.30
2018-10-12T02:14:35.029Z,38.30
2018-10-12T02:17:06.180Z,29.27
2018-10-12T02:19:37.400Z,34.13
2018-10-12T02:22:08.689Z,28.70
2018-10-12T02:24:39.824Z,32.50
2018-10-12T02:27:10.965Z,29.33
2018-10-12T02:29:42.650Z,29.77
2018-10-12T02:32:14.569Z,28.80
2018-10-12T02:34:45.947Z,31.93
2018-10-12T02:37:17.056Z,33.40
2018-10-12T02:39:48.313Z,29.40
2018-10-12T02:42:19.573Z,29.13
2018-10-12T02:44:50.894Z,33.20
2018-10-12T02:47:22.675Z,29.93
2018-10-12T02:49:53.699Z,30.93
2018-10-12T02:52:25.090Z,30.50
2018-10-12T02:54:56.283Z,31.77
2018-10-12T02:57:27.663Z,29.13
2018-10-12T02:59:58.769Z,30.63
2018-10-12T03:02:29.972Z,31.03
2018-10-12T03:05:01.362Z,31.70
2018-10-12T03:07:33.053Z,30.87
2018-10-12T03:10:04.349Z,31.97
2018-10-12T03:12:35.832Z,31.87
2018-10-12T03:15:07.070Z,29.27
2018-10-12T03:17:38.344Z,33.93
2018-10-12T03:20:09.633Z,30.37
2018-10-12T03:22:41.120Z,35.13
2018-10-12T03:25:12.560Z,31.27
2018-10-12T03:28:00.175Z,29.30
2018-10-12T03:30:32.080Z,37.13
2018-10-12T03:33:03.547Z,35.30
2018-10-12T03:35:34.812Z,31.90
2018-10-12T03:38:06.299Z,31.03
2018-10-12T03:40:37.696Z,35.47
2018-10-12T03:43:09.220Z,30.63
2018-10-12T03:45:40.549Z,35.00
2018-10-12T03:48:12.114Z,31.87
2018-10-12T03:50:43.568Z,34.33
2018-10-12T03:53:15.321Z,35.50
2018-10-12T03:55:47.036Z,33.57
2018-10-12T03:58:18.338Z,35.00
2018-10-12T04:00:49.445Z,39.10
2018-10-12T04:03:21.341Z,34.70
2018-10-12T04:05:52.758Z,36.23
2018-10-12T04:08:24.038Z,36.57
2018-10-12T04:10:55.061Z,37.33
2018-10-12T04:13:26.636Z,36.47
2018-10-12T04:15:57.866Z,38.07
2018-10-12T04:18:29.241Z,36.50
2018-10-12T04:21:00.533Z,40.97
2018-10-12T04:23:31.814Z,37.50
2018-10-12T04:26:03.086Z,43.67
2018-10-12T04:28:34.432Z,38.20
2018-10-12T04:31:05.574Z,35.97
2018-10-12T04:33:36.549Z,35.50
2018-10-12T04:36:08.025Z,38.40
2018-10-12T04:38:55.650Z,39.90
2018-10-12T04:41:28.010Z,36.73
2018-10-12T04:44:00.657Z,35.23
2018-10-12T04:46:42.149Z,33.43
2018-10-12T04:49:16.729Z,35.90
2018-10-12T04:51:53.148Z,39.10
2018-10-12T04:54:25.004Z,35.40
2018-10-12T04:56:56.527Z,37.73
2018-10-12T04:59:27.873Z,32.90
2018-10-12T05:01:59.208Z,40.43
2018-10-12T05:04:30.655Z,46.40
2018-10-12T05:07:02.040Z,42.43
2018-10-12T05:09:34.197Z,38.17
2018-10-12T05:12:05.507Z,40.00
2018-10-12T05:14:36.977Z,37.93
2018-10-12T05:17:08.890Z,43.33
2018-10-12T05:19:40.186Z,40.77
2018-10-12T05:22:11.467Z,40.80
2018-10-12T05:24:42.718Z,45.93
2018-10-12T05:27:14.076Z,46.07
2018-10-12T05:29:45.431Z,38.40
2018-10-12T05:32:16.593Z,48.30
2018-10-12T05:34:48.060Z,40.60
2018-10-12T05:37:19.599Z,36.30
2018-10-12T05:39:50.755Z,45.93
2018-10-12T05:42:22.076Z,47.07
2018-10-12T05:44:53.548Z,36.70
2018-10-12T05:47:24.860Z,40.47
2018-10-12T05:50:03.908Z,44.27
2018-10-12T05:52:35.765Z,41.73
2018-10-12T05:55:07.460Z,39.40
2018-10-12T05:57:43.087Z,44.27
2018-10-12T06:00:14.669Z,44.77
2018-10-12T06:02:45.988Z,33.97
2018-10-12T06:05:17.241Z,38.77
2018-10-12T06:07:48.404Z,41.57
2018-10-12T06:10:19.910Z,37.63
2018-10-12T06:12:51.226Z,41.73
2018-10-12T06:15:22.580Z,53.30
2018-10-12T06:17:53.985Z,49.20
2018-10-12T06:20:25.470Z,38.43
2018-10-12T06:22:56.773Z,38.80
2018-10-12T06:25:28.462Z,42.70
2018-10-12T06:27:59.722Z,43.27
2018-10-12T06:30:30.927Z,34.33
2018-10-12T06:33:02.392Z,34.43
2018-10-12T06:35:33.766Z,36.17
2018-10-12T06:38:05.037Z,37.20
2018-10-12T06:40:36.178Z,35.63
2018-10-12T06:43:07.940Z,44.03
2018-10-12T06:45:39.393Z,33.60
2018-10-12T06:48:10.819Z,39.53
2018-10-12T06:50:43.715Z,30.97
2018-10-12T06:53:15.109Z,39.40
2018-10-12T06:55:46.352Z,44.07
2018-10-12T06:58:18.584Z,37.30
2018-10-12T07:00:50.101Z,48.80
2018-10-12T07:03:21.920Z,33.37
2018-10-12T07:05:52.768Z,39.80
2018-10-12T07:08:24.246Z,39.77
2018-10-12T07:10:55.774Z,35.07
2018-10-12T07:13:27.025Z,34.43
2018-10-12T07:15:58.428Z,34.37
2018-10-12T07:18:29.720Z,35.47
2018-10-12T07:21:01.264Z,38.43
2018-10-12T07:23:32.796Z,31.67
2018-10-12T07:26:04.392Z,37.37
2018-10-12T07:28:35.598Z,33.60
2018-10-12T07:31:07.645Z,35.43
2018-10-12T07:33:38.929Z,38.07
2018-10-12T07:36:10.206Z,32.28
2018-10-12T07:38:41.999Z,37.28
2018-10-12T07:41:13.156Z,37.73
2018-10-12T07:43:44.574Z,33.65
2018-10-12T07:46:15.913Z,31.87
2018-10-12T07:48:47.101Z,31.97
2018-10-12T07:51:18.605Z,33.95
2018-10-12T07:53:50.113Z,31.20
2018-10-12T07:56:21.433Z,32.35
2018-10-12T07:58:52.625Z,32.48
2018-10-12T08:01:23.961Z,31.77
2018-10-12T08:03:55.252Z,47.62
2018-10-12T08:06:26.639Z,32.33
2018-10-12T08:08:57.721Z,35.23
2018-10-12T08:11:29.010Z,29.00
2018-10-12T08:14:00.228Z,30.40
2018-10-12T08:16:31.784Z,28.77
2018-10-12T08:19:03.134Z,32.60
2018-10-12T08:21:34.167Z,30.50
2018-10-12T08:24:05.558Z,33.65
2018-10-12T08:26:37.212Z,35.03
2018-10-12T08:29:08.517Z,34.45
2018-10-12T08:31:39.805Z,37.48
2018-10-12T08:34:11.120Z,36.63
2018-10-12T08:36:42.538Z,29.12
2018-10-12T08:39:13.961Z,32.78
2018-10-12T08:41:45.432Z,29.25
2018-10-12T08:44:16.853Z,31.55
2018-10-12T08:46:48.112Z,29.90
2018-10-12T08:49:19.396Z,32.50
2018-10-12T08:51:50.859Z,34.67
2018-10-12T08:54:22.295Z,31.07
2018-10-12T08:56:53.575Z,29.32
2018-10-12T08:59:25.072Z,36.30
2018-10-12T09:01:56.461Z,35.63
2018-10-12T09:04:27.445Z,38.02
2018-10-12T09:06:58.839Z,35.83
2018-10-12T09:09:30.155Z,33.00
2018-10-12T09:12:01.425Z,43.02
2018-10-12T09:14:33.387Z,27.85
2018-10-12T09:17:04.852Z,40.17
2018-10-12T09:19:36.144Z,35.43
2018-10-12T09:22:07.611Z,34.63
2018-10-12T09:24:39.157Z,28.90
2018-10-12T09:27:10.580Z,30.82
2018-10-12T09:29:41.862Z,38.10
2018-10-12T09:32:13.458Z,34.50
2018-10-12T09:34:45.719Z,30.70
2018-10-12T09:37:17.099Z,32.50
2018-10-12T09:39:48.365Z,32.55
2018-10-12T09:42:20.060Z,30.48
2018-10-12T09:44:51.863Z,32.17
2018-10-12T09:47:23.389Z,30.68
2018-10-12T09:49:54.414Z,27.55
2018-10-12T09:52:25.572Z,35.85
2018-10-12T09:54:56.894Z,30.90
2018-10-12T09:57:33.145Z,29.57
2018-10-12T10:00:08.631Z,36.40
2018-10-12T10:02:48.743Z,29.60
2018-10-12T10:05:19.935Z,26.62
2018-10-12T10:07:51.524Z,28.67
2018-10-12T10:10:23.204Z,27.40
2018-10-12T10:12:54.741Z,25.70
2018-10-12T10:15:25.806Z,23.90
2018-10-12T10:17:57.060Z,28.57
2018-10-12T10:20:28.305Z,28.85
2018-10-12T10:22:59.760Z,26.48
2018-10-12T10:25:31.469Z,23.15
2018-10-12T10:28:02.746Z,28.00
2018-10-12T10:30:34.172Z,29.95
2018-10-12T10:33:05.741Z,34.40
2018-10-12T10:35:37.126Z,24.82
2018-10-12T10:38:08.856Z,23.12
2018-10-12T10:40:40.167Z,23.52
2018-10-12T10:43:11.522Z,26.17
2018-10-12T10:45:42.868Z,21.75
2018-10-12T10:48:14.444Z,20.37
2018-10-12T10:50:45.887Z,19.52
2018-10-12T10:53:17.292Z,22.15
2018-10-12T10:55:48.873Z,21.37
2018-10-12T10:58:20.166Z,22.50
2018-10-12T11:00:51.686Z,18.60
2018-10-12T11:03:23.080Z,17.67
2018-10-12T11:05:54.691Z,17.90
2018-10-12T11:08:25.985Z,24.23
2018-10-12T11:10:57.426Z,22.22
2018-10-12T11:13:28.680Z,27.27
2018-10-12T11:16:00.001Z,20.27
2018-10-12T11:18:31.367Z,20.00
2018-10-12T11:21:02.580Z,27.17
2018-10-12T11:23:33.772Z,21.30
2018-10-12T11:26:04.921Z,30.20
2018-10-12T11:28:36.503Z,22.42
2018-10-12T11:31:08.297Z,19.95
2018-10-12T11:33:39.485Z,21.68
2018-10-12T11:36:10.681Z,22.60
2018-10-12T11:38:41.865Z,30.30
2018-10-12T11:41:13.377Z,27.05
2018-10-12T11:43:44.839Z,23.92
2018-10-12T11:46:16.687Z,20.35
2018-10-12T11:48:47.970Z,24.30
2018-10-12T11:51:19.490Z,18.05
2018-10-12T11:53:51.054Z,19.70
2018-10-12T11:56:22.425Z,23.42
2018-10-12T11:58:53.670Z,19.07
2018-10-12T12:01:24.807Z,21.27
2018-10-12T12:03:56.421Z,21.73
2018-10-12T12:06:27.921Z,23.55
2018-10-12T12:08:59.120Z,19.17
2018-10-12T12:11:30.396Z,26.07
2018-10-12T12:14:01.811Z,25.85
2018-10-12T12:16:32.940Z,45.50
2018-10-12T12:19:04.412Z,31.62
2018-10-12T12:21:36.156Z,19.17
2018-10-12T12:24:07.807Z,23.32
2018-10-12T12:26:39.092Z,30.05
2018-10-12T12:29:10.615Z,34.95
2018-10-12T12:31:42.063Z,22.30
2018-10-12T12:34:13.253Z,21.07
2018-10-12T12:36:44.751Z,19.57
2018-10-12T12:39:16.068Z,26.70
2018-10-12T12:41:47.411Z,29.65
2018-10-12T12:44:18.720Z,25.88
2018-10-12T12:46:50.127Z,20.32
2018-10-12T12:49:21.812Z,20.70
2018-10-12T12:51:52.985Z,20.60
2018-10-12T12:54:24.272Z,16.30
2018-10-12T12:56:55.921Z,18.43
2018-10-12T12:59:27.833Z,26.73
2018-10-12T13:01:58.896Z,25.30
2018-10-12T13:04:30.122Z,25.80
2018-10-12T13:07:01.564Z,23.13
2018-10-12T13:09:32.769Z,20.60
2018-10-12T13:12:04.153Z,16.97
2018-10-12T13:14:35.737Z,17.55
2018-10-12T13:17:07.244Z,19.73
2018-10-12T13:19:38.714Z,20.02
2018-10-12T13:22:10.004Z,23.07
2018-10-12T13:24:41.542Z,21.13
2018-10-12T13:27:13.069Z,21.60
2018-10-12T13:29:44.848Z,17.90
2018-10-12T13:32:16.156Z,23.40
2018-10-12T13:34:47.874Z,20.23
2018-10-12T13:37:19.261Z,17.43
2018-10-12T13:39:50.560Z,17.65
2018-10-12T13:42:21.958Z,19.40
2018-10-12T13:44:53.292Z,23.27
2018-10-12T13:47:24.699Z,22.03
2018-10-12T13:49:56.008Z,16.10
2018-10-12T13:52:27.458Z,18.93
2018-10-12T13:54:58.869Z,18.50
2018-10-12T13:57:30.201Z,20.57
2018-10-12T14:00:01.505Z,21.00
2018-10-12T14:02:32.977Z,21.33
2018-10-12T14:05:04.461Z,22.07
2018-10-12T14:07:35.815Z,27.77
2018-10-12T14:10:07.359Z,16.23
2018-10-12T14:12:38.611Z,21.87
2018-10-12T14:15:09.836Z,21.23
2018-10-12T14:17:41.078Z,15.33
2018-10-12T14:20:12.304Z,16.53
2018-10-12T14:22:43.688Z,17.83
2018-10-12T14:25:14.991Z,18.93
2018-10-12T14:27:46.540Z,20.50
2018-10-12T14:30:18.165Z,18.90
2018-10-12T14:32:49.484Z,16.90
2018-10-12T14:35:20.903Z,18.33
2018-10-12T14:37:52.245Z,23.13
2018-10-12T14:40:23.556Z,20.63
2018-10-12T14:42:54.912Z,19.07
2018-10-12T14:45:26.421Z,14.83
2018-10-12T14:47:58.032Z,18.43
2018-10-12T14:50:29.519Z,22.17
2018-10-12T14:53:00.678Z,16.57
2018-10-12T14:55:32.280Z,16.47
2018-10-12T14:58:03.719Z,18.10
2018-10-12T15:00:34.918Z,15.53
2018-10-12T15:03:06.440Z,16.02
2018-10-12T15:05:37.651Z,17.57
2018-10-12T15:08:08.934Z,14.50
2018-10-12T15:10:40.396Z,22.40
2018-10-12T15:13:11.628Z,16.63
2018-10-12T15:15:43.628Z,15.57
2018-10-12T15:18:14.973Z,17.77
2018-10-12T15:20:46.386Z,18.27
2018-10-12T15:23:18.050Z,15.93
2018-10-12T15:25:49.196Z,21.13
2018-10-12T15:28:20.388Z,14.33
2018-10-12T15:30:51.778Z,18.17
2018-10-12T15:33:23.169Z,16.67
2018-10-12T15:35:54.550Z,22.13
2018-10-12T15:38:25.755Z,22.13
2018-10-12T15:40:57.624Z,21.02
2018-10-12T15:43:29.209Z,21.37
2018-10-12T15:46:00.524Z,21.67
2018-10-12T15:48:32.152Z,34.10
2018-10-12T15:51:03.860Z,35.17
2018-10-12T15:53:35.192Z,19.37
2018-10-12T15:56:06.470Z,23.10
2018-10-12T15:58:37.848Z,30.17
2018-10-12T16:01:09.224Z,24.47
2018-10-12T16:03:40.856Z,24.67
2018-10-12T16:06:12.309Z,19.73
2018-10-12T16:08:43.836Z,21.23
2018-10-12T16:11:14.884Z,23.63
2018-10-12T16:13:46.480Z,25.73
2018-10-12T16:16:18.025Z,20.33
2018-10-12T16:18:49.662Z,23.67
2018-10-12T16:21:20.965Z,24.90
2018-10-12T16:23:52.796Z,23.63
2018-10-12T16:26:24.849Z,27.90
2018-10-12T16:28:56.386Z,23.30
2018-10-12T16:31:27.647Z,26.20
2018-10-12T16:33:59.100Z,25.20
2018-10-12T16:36:30.651Z,21.90
2018-10-12T16:39:02.109Z,28.30
2018-10-12T16:41:33.790Z,22.43
2018-10-12T16:44:05.469Z,29.63
2018-10-12T16:46:36.673Z,24.80
2018-10-12T16:49:08.243Z,28.87
2018-10-12T16:51:39.721Z,25.53
2018-10-12T16:54:11.179Z,27.07
2018-10-12T16:56:42.628Z,32.57
2018-10-12T16:59:14.105Z,27.53
2018-10-12T17:01:45.726Z,30.73
2018-10-12T17:04:17.088Z,29.93
2018-10-12T17:06:48.593Z,26.97
2018-10-12T17:09:19.860Z,25.33
2018-10-12T17:11:51.380Z,24.53
2018-10-12T17:14:23.772Z,32.67
2018-10-12T17:16:55.231Z,37.40
2018-10-12T17:19:26.635Z,28.77
2018-10-12T17:21:58.272Z,25.70
2018-10-12T17:24:29.762Z,26.10
2018-10-12T17:27:01.019Z,35.37
2018-10-12T17:29:32.595Z,32.77
2018-10-12T17:32:04.095Z,29.40
2018-10-12T17:34:35.532Z,25.40
2018-10-12T17:37:06.902Z,27.07
2018-10-12T17:39:38.221Z,33.97
2018-10-12T17:42:16.616Z,29.77
2018-10-12T17:44:48.251Z,37.13
2018-10-12T17:47:21.323Z,35.87
2018-10-12T17:49:53.175Z,27.90
2018-10-12T17:52:24.750Z,29.77
2018-10-12T17:54:56.300Z,26.37
2018-10-12T17:57:28.541Z,22.33
2018-10-12T17:59:59.965Z,29.57
2018-10-12T18:02:31.234Z,31.90
2018-10-12T18:05:02.497Z,27.67
2018-10-12T18:07:34.246Z,28.63
2018-10-12T18:10:06.036Z,21.90
2018-10-12T18:12:37.506Z,27.50
2018-10-12T18:15:11.906Z,26.10
2018-10-12T18:17:43.389Z,28.80
2018-10-12T18:20:14.802Z,40.13
2018-10-12T18:22:46.085Z,40.20
2018-10-12T18:25:17.755Z,26.60
2018-10-12T18:27:49.039Z,30.73
2018-10-12T18:30:20.713Z,29.77
2018-10-12T18:32:52.200Z,33.67
2018-10-12T18:35:23.666Z,26.40
2018-10-12T18:37:55.061Z,26.63
2018-10-12T18:40:26.462Z,34.67
2018-10-12T18:42:57.907Z,30.47
2018-10-12T18:45:29.307Z,29.40
2018-10-12T18:48:00.900Z,28.97
2018-10-12T18:50:32.310Z,27.87
2018-10-12T18:53:03.729Z,25.60
2018-10-12T18:55:35.105Z,26.20
2018-10-12T18:58:06.562Z,30.07
2018-10-12T19:00:38.020Z,24.43
2018-10-12T19:03:09.376Z,26.53
2018-10-12T19:05:41.817Z,27.43
2018-10-12T19:08:13.157Z,27.07
2018-10-12T19:10:44.857Z,25.87
2018-10-12T19:13:16.417Z,26.20
2018-10-12T19:15:47.824Z,26.27
2018-10-12T19:18:19.390Z,25.80
2018-10-12T19:20:51.111Z,24.07
2018-10-12T19:23:22.698Z,28.80
2018-10-12T19:25:54.134Z,23.57
2018-10-12T19:28:25.754Z,29.40
2018-10-12T19:30:57.107Z,28.47
2018-10-12T19:33:28.631Z,29.57
2018-10-12T19:36:00.037Z,29.20
2018-10-12T19:38:31.285Z,25.97
2018-10-12T19:41:02.606Z,28.93
2018-10-12T19:43:33.930Z,28.93
2018-10-12T19:46:05.519Z,25.57
2018-10-12T19:48:36.770Z,30.47
2018-10-12T19:51:08.444Z,29.00
2018-10-12T19:53:39.838Z,27.53
2018-10-12T19:56:11.419Z,28.60
2018-10-12T19:58:42.971Z,34.57
2018-10-12T20:01:14.281Z,31.40
2018-10-12T20:03:45.707Z,36.20
2018-10-12T20:06:17.334Z,23.93
2018-10-12T20:08:49.118Z,29.50
2018-10-12T20:11:20.536Z,28.27
2018-10-12T20:13:51.841Z,21.23
2018-10-12T20:16:23.468Z,24.27
2018-10-12T20:18:54.765Z,28.40
2018-10-12T20:21:26.446Z,29.80
2018-10-12T20:23:57.979Z,30.53
2018-10-12T20:26:29.192Z,25.07
2018-10-12T20:29:00.964Z,26.97
2018-10-12T20:31:32.684Z,27.63
2018-10-12T20:34:04.191Z,25.20
2018-10-12T20:36:35.648Z,25.33
2018-10-12T20:39:10.376Z,27.73
2018-10-12T20:41:41.736Z,33.60
2018-10-12T20:44:13.513Z,26.90
2018-10-12T20:46:44.987Z,26.17
2018-10-12T20:49:16.384Z,23.83
2018-10-12T20:51:47.584Z,26.60
2018-10-12T20:54:18.902Z,25.50
2018-10-12T20:56:50.527Z,33.27
2018-10-12T20:59:22.271Z,27.67
2018-10-12T21:01:53.571Z,30.57
2018-10-12T21:04:24.948Z,27.77
2018-10-12T21:06:56.365Z,24.33
2018-10-12T21:09:27.598Z,27.93
2018-10-12T21:11:59.140Z,22.93
2018-10-12T21:14:30.593Z,23.93
2018-10-12T21:17:01.987Z,29.27
2018-10-12T21:19:33.335Z,27.63
2018-10-12T21:22:04.833Z,24.57
2018-10-12T21:24:36.135Z,25.23
2018-10-12T21:27:07.609Z,30.80
2018-10-12T21:29:39.302Z,27.53
2018-10-12T21:32:10.533Z,28.13
2018-10-12T21:34:41.843Z,26.80
2018-10-12T21:37:13.438Z,26.90
2018-10-12T21:39:45.164Z,26.10
2018-10-12T21:42:16.648Z,54.03
2018-10-12T21:44:48.228Z,34.47
2018-10-12T21:47:19.342Z,26.23
2018-10-12T21:49:50.887Z,42.93
2018-10-12T21:52:22.312Z,37.87
2018-10-12T21:54:53.734Z,31.93
2018-10-12T21:57:25.138Z,32.33
2018-10-12T21:59:56.609Z,29.73
2018-10-12T22:02:28.569Z,26.23
2018-10-12T22:05:00.026Z,25.30
2018-10-12T22:07:32.507Z,27.20
2018-10-12T22:10:03.939Z,28.40
2018-10-12T22:12:35.298Z,24.23
2018-10-12T22:15:06.576Z,24.93
2018-10-12T22:17:38.180Z,26.73
2018-10-12T22:20:09.445Z,21.87
2018-10-12T22:22:40.714Z,27.83
2018-10-12T22:25:12.102Z,25.00
2018-10-12T22:27:43.789Z,28.70
2018-10-12T22:30:15.370Z,24.90
2018-10-12T22:32:46.572Z,28.60
2018-10-12T22:35:17.785Z,30.20
2018-10-12T22:37:49.133Z,26.93
2018-10-12T22:40:21.452Z,30.00
2018-10-12T22:42:55.341Z,27.53
2018-10-12T22:45:26.862Z,24.77
2018-10-12T22:47:58.142Z,27.40
2018-10-12T22:50:29.599Z,29.90
2018-10-12T22:53:01.096Z,24.13
2018-10-12T22:55:32.605Z,31.67
2018-10-12T22:58:04.102Z,28.77
2018-10-12T23:00:35.571Z,26.17
2018-10-12T23:03:07.023Z,27.80
2018-10-12T23:05:38.410Z,25.03
2018-10-12T23:08:09.556Z,23.27
2018-10-12T23:10:41.122Z,29.20
2018-10-12T23:13:12.965Z,25.00
2018-10-12T23:15:44.330Z,26.90
2018-10-12T23:18:15.540Z,32.30
2018-10-12T23:20:46.697Z,23.30
2018-10-12T23:23:18.237Z,23.93
2018-10-12T23:25:49.697Z,28.50
2018-10-12T23:28:20.977Z,25.10
2018-10-12T23:30:52.326Z,25.33
2018-10-12T23:33:39.557Z,30.83
2018-10-12T23:36:10.904Z,27.10
2018-10-12T23:38:42.368Z,26.97
2018-10-12T23:41:13.552Z,24.30
2018-10-12T23:43:44.781Z,30.67
2018-10-12T23:46:16.061Z,32.83
2018-10-12T23:48:47.300Z,28.30
2018-10-12T23:51:18.768Z,28.50
2018-10-12T23:53:50.157Z,30.30
2018-10-12T23:56:21.352Z,28.13
2018-10-12T23:58:52.776Z,32.77
